Pine City, New York
Current Conditions -  °F | °C
As of 4:53 PM on Wednesday 22 Oct 2014 (Local Time) from KELM Reporting Station
Overcast Overcast  
Wind Chill: 44°   Ceiling: 1100
Heat Index: 48°   Visibility: 8mi
Dew Point: 44°   Wind: 8mph
Humidity: 86%   Direction: 350°N
Pressure: 30.1"   Gusts: 18mph
Location:  42.04°N, 76.87°W
Report Text: KELM 222053Z 35007G16KT 8SM OVC011 09/07 A3010 RMK AO2 SLP198 T00890067 55001
Loading
Personal Weather Stations






























Interactive Weather Map
Tropical Storm Tracking
New forecast layout! Learn more

10-Day Weather Forecast

Advertisements
Track Severe Weather on mobile